Ride Results

Ararat Endurance Ride (10-08-2019)
Ride distance: 80.0 km

Outcomes - Ararat Endurance Ride (10-08-2019)
Division No. of Entries Retired / DNE Completed Withdrawn Ineligible V/O Percentage Completed
HW 3 - 1 - - 2 33.33%
MW 11 - 9 2 - - 81.82%
LW 14 - 10 2 - 2 71.43%
JN 6 - 5 - - 1 83.33%
Totals 34 - 25 4 - 5 73.53%
Results - Ararat Endurance Ride (10-08-2019)
No. Rider Horse Place Time Leg Speeds Total
Km/Hr
H/R bpm
Heavyweight
329 Carly Loughnan Aldersyde Ambrosia 1 (BC) 6:07:00 13.2, 12.9 13.08 36, 38, 55 (Avg:46)
18 Ken Bradley Littlebanks Magic Wings Lame L2 0:00:00 12.8, 13.2 - 40, 48, 56 (Avg:52)
260 Russell Gillingham Ennerdale Rubik Lame L1 0:00:00 11.3 - 39, 40 (Avg:40)
Middleweight
233 Paul Bryson Willy 1 4:54:00 17.2, 15.4 16.33 36, 36, 56 (Avg:46)
126 Wendy Riha Talk Down 2 (BC) 5:21:00 14.5, 15.3 14.95 30, 38, 39 (Avg:38)
173 Robyn Albers A'landell Kwaint 3 6:03:00 14.2, 12.3 13.22 30, 44, 49 (Avg:46)
227 Karen Vickers Allamir Mars 3 6:03:00 14.2, 12.3 13.22 35, 46, 36 (Avg:41)
775 Tahlia Franke Al-Marah Grand Imogen 5 6:05:00 12.7, 13.5 13.15 36, 47, 39 (Avg:43)
257 Tanya Beacham Creswick Magdaleenah 6 6:07:00 14.1, 12.1 13.08 30, 31, 50 (Avg:40)
352 Talia Bognar Natham Park Charmika 7 6:08:00 12.8, 13.2 13.04 31, 38, 38 (Avg:38)
758 Anna Feely Ginger H 3 8 6:41:00 12.4, 11.4 11.97 40, 49, 46 (Avg:47)
755 Mohd Halim Abdul Rahim Clovelly Park Bejewelled 9 6:56:00 11.4, 11.5 11.54 30, 30, 45 (Avg:37)
273 Georgie Hart Yandilla Ultimate Affair W/D after vetting L1 0:00:00 - - 41, 37 (Avg:37)
759 Amanda Kettlewell Oso Lorikeet W/D after vetting L1 0:00:00 - - 32, 32 (Avg:32)
Lightweight
389 Ashleigh Van Leeuwen Pharrah Eclipse 1 (BC) 4:38:00 17.7, 16.7 17.27 32, 32, 32 (Avg:32)
244 Marty Bryson Castlebar Shatan 2 4:54:00 17.2, 15.4 16.33 38, 38, 39 (Avg:38)
278 Gina Thompson Henley Farm Islah 3 5:03:00 16.9, 14.9 15.84 26, 41, 48 (Avg:44)
161 Shannon Decker Rocky Point Sands of Cinnabar 4 6:01:00 14.3, 12.3 13.30 30, 44, 38 (Avg:41)
151 Kasey Thomas Rocky Point Black Sardonyx 4 6:01:00 14.3, 12.3 13.30 40, 31, 49 (Avg:40)
316 Taylah Nikolic Halimas Andronicus 6 6:08:00 12.8, 13.2 13.04 36, 47, 41 (Avg:44)
22 Sarah McLaughlin Tonki Dee Boo Shania 7 6:45:00 12.7, 11.0 11.85 36, 30, 38 (Avg:34)
183 Nicky Robinson Sterling Nakeeta 7 6:45:00 12.7, 11.0 11.85 45, 43, 53 (Avg:48)
741 Lara Poynton Tubbarubba Pollyanna 9 6:56:00 11.4, 11.5 11.54 32, 50, 57 (Avg:53)
742 Jessica Pinsent Eminem Amarella 10 7:06:00 11.1, 11.3 11.27 40, 39, 46 (Avg:42)
744 Victoria Bice Al-Marah Land Speed W/D on track L2 0:00:00 - - 36, 36, 50 (Avg:43)
749 Emma Dimech Oso Ngaire Lame L2 0:00:00 16.5, 13.6 - 38, 36, 49 (Avg:42)
743 Andrea Fullagar Rocky Point Fire Opal Lame L2 0:00:00 11.1, 8.8 - 34, 45, 46 (Avg:45)
90 Samantha Noble Endel El Probat W/D on track L2 0:00:00 - - 35, 38, 39 (Avg:38)
Junior
288 Daisy Bryson Miss Dior Mi 1 (BC) 4:54:00 17.2, 15.4 16.33 40, 37, 41 (Avg:39)
289 Sophie Hart Accelerate 1 4:54:00 17.2, 15.4 16.33 38, 45, 49 (Avg:47)
298 Vanessa Mills Echo Jamaal 3 5:03:00 16.9, 14.9 15.84 39, 44, 51 (Avg:47)
746 Grace Goodley San Ella Lancalot 4 6:41:00 12.4, 11.4 11.97 36, 35, 48 (Avg:41)
292 Alison Noble Warrawee Naaziq 5 6:49:00 11.9, 11.5 11.74 36, 35, 54 (Avg:44)
748 Poppy Kettlewell Al Marah Heyho Silver Lame L2 0:00:00 12.7, 13.5 - 35, 46, 40 (Avg:43)